sensor_id;sensor_type;location;lat;lon;timestamp;temperature;humidity
7658;DHT22;8462;53.156;8.220;2023-11-21T00:01:50;11.90;99.90
7658;DHT22;8462;53.156;8.220;2023-11-21T00:04:17;11.90;99.90
7658;DHT22;8462;53.156;8.220;2023-11-21T00:06:51;11.90;99.90
7658;DHT22;8462;53.156;8.220;2023-11-21T00:09:21;12.00;99.90
7658;DHT22;8462;53.156;8.220;2023-11-21T00:11:48;12.00;99.90
7658;DHT22;8462;53.156;8.220;2023-11-21T00:14:16;12.00;99.90
7658;DHT22;8462;53.156;8.220;2023-11-21T00:16:43;12.00;99.90
7658;DHT22;8462;53.156;8.220;2023-11-21T00:19:11;12.00;99.90
7658;DHT22;8462;53.156;8.220;2023-11-21T00:21:38;12.00;99.90
7658;DHT22;8462;53.156;8.220;2023-11-21T00:24:05;11.90;99.90
7658;DHT22;8462;53.156;8.220;2023-11-21T00:26:33;11.90;99.90
7658;DHT22;8462;53.156;8.220;2023-11-21T00:29:03;12.00;99.90
7658;DHT22;8462;53.156;8.220;2023-11-21T00:31:35;11.90;99.90
7658;DHT22;8462;53.156;8.220;2023-11-21T00:34:02;12.00;99.90
7658;DHT22;8462;53.156;8.220;2023-11-21T00:36:30;12.00;99.90
7658;DHT22;8462;53.156;8.220;2023-11-21T00:38:58;11.90;99.90
7658;DHT22;8462;53.156;8.220;2023-11-21T00:41:25;11.90;99.90
7658;DHT22;8462;53.156;8.220;2023-11-21T00:43:53;12.00;99.90
7658;DHT22;8462;53.156;8.220;2023-11-21T00:46:21;12.00;99.90
7658;DHT22;8462;53.156;8.220;2023-11-21T00:48:51;12.00;99.90
7658;DHT22;8462;53.156;8.220;2023-11-21T00:51:19;12.00;99.90
7658;DHT22;8462;53.156;8.220;2023-11-21T00:53:47;12.10;99.90
7658;DHT22;8462;53.156;8.220;2023-11-21T00:56:14;12.10;99.90
7658;DHT22;8462;53.156;8.220;2023-11-21T00:58:42;12.10;99.90
7658;DHT22;8462;53.156;8.220;2023-11-21T01:01:09;12.10;99.90
7658;DHT22;8462;53.156;8.220;2023-11-21T01:03:37;12.10;99.90
7658;DHT22;8462;53.156;8.220;2023-11-21T01:06:06;12.10;99.90
7658;DHT22;8462;53.156;8.220;2023-11-21T01:08:34;12.10;99.90
7658;DHT22;8462;53.156;8.220;2023-11-21T01:11:01;12.20;99.90
7658;DHT22;8462;53.156;8.220;2023-11-21T01:13:28;12.20;99.90
7658;DHT22;8462;53.156;8.220;2023-11-21T01:15:56;12.20;99.90
7658;DHT22;8462;53.156;8.220;2023-11-21T01:18:23;12.20;99.90
7658;DHT22;8462;53.156;8.220;2023-11-21T01:20:52;12.30;99.90
7658;DHT22;8462;53.156;8.220;2023-11-21T01:23:20;12.30;99.90
7658;DHT22;8462;53.156;8.220;2023-11-21T01:25:49;12.20;99.90
7658;DHT22;8462;53.156;8.220;2023-11-21T01:28:17;12.10;99.90
7658;DHT22;8462;53.156;8.220;2023-11-21T01:30:45;12.10;99.90
7658;DHT22;8462;53.156;8.220;2023-11-21T01:33:12;12.00;99.90
7658;DHT22;8462;53.156;8.220;2023-11-21T01:35:41;12.00;99.90
7658;DHT22;8462;53.156;8.220;2023-11-21T01:38:08;12.00;99.90
7658;DHT22;8462;53.156;8.220;2023-11-21T01:40:36;12.00;99.90
7658;DHT22;8462;53.156;8.220;2023-11-21T01:43:03;12.10;99.90
7658;DHT22;8462;53.156;8.220;2023-11-21T01:45:30;12.10;99.90
7658;DHT22;8462;53.156;8.220;2023-11-21T01:48:00;12.20;99.90
7658;DHT22;8462;53.156;8.220;2023-11-21T01:50:28;12.20;99.90
7658;DHT22;8462;53.156;8.220;2023-11-21T01:52:55;12.20;99.90
7658;DHT22;8462;53.156;8.220;2023-11-21T01:55:23;12.30;99.90
7658;DHT22;8462;53.156;8.220;2023-11-21T01:57:52;12.30;99.90
7658;DHT22;8462;53.156;8.220;2023-11-21T02:00:19;12.30;99.90
7658;DHT22;8462;53.156;8.220;2023-11-21T02:02:46;12.30;99.90
7658;DHT22;8462;53.156;8.220;2023-11-21T02:05:15;12.40;99.90
7658;DHT22;8462;53.156;8.220;2023-11-21T02:07:43;12.30;99.90
7658;DHT22;8462;53.156;8.220;2023-11-21T02:10:11;12.40;99.90
7658;DHT22;8462;53.156;8.220;2023-11-21T02:12:40;12.40;99.90
7658;DHT22;8462;53.156;8.220;2023-11-21T02:15:10;12.40;99.90
7658;DHT22;8462;53.156;8.220;2023-11-21T02:17:42;12.40;99.90
7658;DHT22;8462;53.156;8.220;2023-11-21T02:20:11;12.40;99.90
7658;DHT22;8462;53.156;8.220;2023-11-21T02:22:43;12.40;99.90
7658;DHT22;8462;53.156;8.220;2023-11-21T02:25:13;12.40;99.90
7658;DHT22;8462;53.156;8.220;2023-11-21T02:27:40;12.40;99.90
7658;DHT22;8462;53.156;8.220;2023-11-21T02:30:08;12.40;99.90
7658;DHT22;8462;53.156;8.220;2023-11-21T02:32:38;12.50;99.90
7658;DHT22;8462;53.156;8.220;2023-11-21T02:35:09;12.40;99.90
7658;DHT22;8462;53.156;8.220;2023-11-21T02:37:37;12.40;99.90
7658;DHT22;8462;53.156;8.220;2023-11-21T02:40:09;12.40;99.90
7658;DHT22;8462;53.156;8.220;2023-11-21T02:42:40;12.40;99.90
7658;DHT22;8462;53.156;8.220;2023-11-21T02:45:08;12.30;99.90
7658;DHT22;8462;53.156;8.220;2023-11-21T02:47:38;12.30;99.90
7658;DHT22;8462;53.156;8.220;2023-11-21T02:50:05;12.40;99.90
7658;DHT22;8462;53.156;8.220;2023-11-21T02:52:33;12.30;99.90
7658;DHT22;8462;53.156;8.220;2023-11-21T02:55:02;12.30;99.90
7658;DHT22;8462;53.156;8.220;2023-11-21T02:57:32;12.30;99.90
7658;DHT22;8462;53.156;8.220;2023-11-21T03:00:01;12.30;99.90
7658;DHT22;8462;53.156;8.220;2023-11-21T03:02:29;12.30;99.90
7658;DHT22;8462;53.156;8.220;2023-11-21T03:04:56;12.30;99.90
7658;DHT22;8462;53.156;8.220;2023-11-21T03:07:22;12.40;99.90
7658;DHT22;8462;53.156;8.220;2023-11-21T03:09:49;12.40;99.90
7658;DHT22;8462;53.156;8.220;2023-11-21T03:12:16;12.40;99.90
7658;DHT22;8462;53.156;8.220;2023-11-21T03:14:43;12.40;99.90
7658;DHT22;8462;53.156;8.220;2023-11-21T03:17:12;12.40;99.90
7658;DHT22;8462;53.156;8.220;2023-11-21T03:19:41;12.40;99.90
7658;DHT22;8462;53.156;8.220;2023-11-21T03:22:08;12.40;99.90
7658;DHT22;8462;53.156;8.220;2023-11-21T03:24:35;12.40;99.90
7658;DHT22;8462;53.156;8.220;2023-11-21T03:27:04;12.40;99.90
7658;DHT22;8462;53.156;8.220;2023-11-21T03:29:31;12.30;99.90
7658;DHT22;8462;53.156;8.220;2023-11-21T03:31:58;12.20;99.90
7658;DHT22;8462;53.156;8.220;2023-11-21T03:34:28;12.10;99.90
7658;DHT22;8462;53.156;8.220;2023-11-21T03:36:55;12.00;99.90
7658;DHT22;8462;53.156;8.220;2023-11-21T03:39:22;11.90;99.90
7658;DHT22;8462;53.156;8.220;2023-11-21T03:41:49;11.80;99.90
7658;DHT22;8462;53.156;8.220;2023-11-21T03:44:19;11.80;99.90
7658;DHT22;8462;53.156;8.220;2023-11-21T03:46:46;11.70;99.90
7658;DHT22;8462;53.156;8.220;2023-11-21T03:49:13;11.60;99.90
7658;DHT22;8462;53.156;8.220;2023-11-21T03:51:42;11.50;99.90
7658;DHT22;8462;53.156;8.220;2023-11-21T03:54:09;11.40;99.90
7658;DHT22;8462;53.156;8.220;2023-11-21T03:56:39;11.30;99.90
7658;DHT22;8462;53.156;8.220;2023-11-21T03:59:06;11.30;99.90
7658;DHT22;8462;53.156;8.220;2023-11-21T04:01:33;11.20;99.90
7658;DHT22;8462;53.156;8.220;2023-11-21T04:04:00;11.20;99.90
7658;DHT22;8462;53.156;8.220;2023-11-21T04:06:27;11.10;99.90
7658;DHT22;8462;53.156;8.220;2023-11-21T04:08:55;11.00;99.90
7658;DHT22;8462;53.156;8.220;2023-11-21T04:11:22;11.00;99.90
7658;DHT22;8462;53.156;8.220;2023-11-21T04:13:49;10.90;99.90
7658;DHT22;8462;53.156;8.220;2023-11-21T04:16:17;10.90;99.90
7658;DHT22;8462;53.156;8.220;2023-11-21T04:18:44;10.90;99.90
7658;DHT22;8462;53.156;8.220;2023-11-21T04:21:12;11.00;99.90
7658;DHT22;8462;53.156;8.220;2023-11-21T04:23:39;11.00;99.90
7658;DHT22;8462;53.156;8.220;2023-11-21T04:26:08;10.90;99.90
7658;DHT22;8462;53.156;8.220;2023-11-21T04:28:34;10.90;99.90
7658;DHT22;8462;53.156;8.220;2023-11-21T04:31:02;10.80;99.90
7658;DHT22;8462;53.156;8.220;2023-11-21T04:33:29;10.70;99.90
7658;DHT22;8462;53.156;8.220;2023-11-21T04:35:57;10.70;99.90
7658;DHT22;8462;53.156;8.220;2023-11-21T04:38:24;10.70;99.90
7658;DHT22;8462;53.156;8.220;2023-11-21T04:40:50;10.70;99.90
7658;DHT22;8462;53.156;8.220;2023-11-21T04:43:19;10.60;99.90
7658;DHT22;8462;53.156;8.220;2023-11-21T04:45:51;10.60;99.90
7658;DHT22;8462;53.156;8.220;2023-11-21T04:48:17;10.60;99.90
7658;DHT22;8462;53.156;8.220;2023-11-21T04:50:45;10.70;99.90
7658;DHT22;8462;53.156;8.220;2023-11-21T04:53:11;10.70;99.90
7658;DHT22;8462;53.156;8.220;2023-11-21T04:55:40;10.70;99.90
7658;DHT22;8462;53.156;8.220;2023-11-21T04:58:07;10.70;99.90
7658;DHT22;8462;53.156;8.220;2023-11-21T05:00:35;10.60;99.90
7658;DHT22;8462;53.156;8.220;2023-11-21T05:03:02;10.60;99.90
7658;DHT22;8462;53.156;8.220;2023-11-21T05:05:30;10.60;99.90
7658;DHT22;8462;53.156;8.220;2023-11-21T05:07:57;10.60;99.90
7658;DHT22;8462;53.156;8.220;2023-11-21T05:10:23;10.60;99.90
7658;DHT22;8462;53.156;8.220;2023-11-21T05:12:50;10.60;99.90
7658;DHT22;8462;53.156;8.220;2023-11-21T05:15:17;10.60;99.90
7658;DHT22;8462;53.156;8.220;2023-11-21T05:17:47;10.60;99.90
7658;DHT22;8462;53.156;8.220;2023-11-21T05:20:15;10.60;99.90
7658;DHT22;8462;53.156;8.220;2023-11-21T05:22:47;10.60;99.90
7658;DHT22;8462;53.156;8.220;2023-11-21T05:25:15;10.60;99.90
7658;DHT22;8462;53.156;8.220;2023-11-21T05:27:44;10.60;99.90
7658;DHT22;8462;53.156;8.220;2023-11-21T05:30:13;10.60;99.90
7658;DHT22;8462;53.156;8.220;2023-11-21T05:32:41;10.50;99.90
7658;DHT22;8462;53.156;8.220;2023-11-21T05:35:11;10.50;99.90
7658;DHT22;8462;53.156;8.220;2023-11-21T05:37:41;10.50;99.90
7658;DHT22;8462;53.156;8.220;2023-11-21T05:40:09;10.50;99.90
7658;DHT22;8462;53.156;8.220;2023-11-21T05:42:36;10.50;99.90
7658;DHT22;8462;53.156;8.220;2023-11-21T05:45:06;10.50;99.90
7658;DHT22;8462;53.156;8.220;2023-11-21T05:47:36;10.50;99.90
7658;DHT22;8462;53.156;8.220;2023-11-21T05:50:04;10.50;99.90
7658;DHT22;8462;53.156;8.220;2023-11-21T05:52:37;10.50;99.90
7658;DHT22;8462;53.156;8.220;2023-11-21T05:55:04;10.40;99.90
7658;DHT22;8462;53.156;8.220;2023-11-21T05:57:33;10.30;99.90
7658;DHT22;8462;53.156;8.220;2023-11-21T06:00:03;10.20;99.90
7658;DHT22;8462;53.156;8.220;2023-11-21T06:03:01;10.10;99.90
7658;DHT22;8462;53.156;8.220;2023-11-21T06:05:28;10.00;99.90
7658;DHT22;8462;53.156;8.220;2023-11-21T06:07:59;10.00;99.90
7658;DHT22;8462;53.156;8.220;2023-11-21T06:10:26;10.00;99.90
7658;DHT22;8462;53.156;8.220;2023-11-21T06:12:55;10.00;99.90
7658;DHT22;8462;53.156;8.220;2023-11-21T06:15:23;9.90;99.90
7658;DHT22;8462;53.156;8.220;2023-11-21T06:17:50;9.90;99.90
7658;DHT22;8462;53.156;8.220;2023-11-21T06:20:18;9.90;99.90
7658;DHT22;8462;53.156;8.220;2023-11-21T06:22:46;10.00;99.90
7658;DHT22;8462;53.156;8.220;2023-11-21T06:25:15;10.10;99.90
7658;DHT22;8462;53.156;8.220;2023-11-21T06:27:44;10.10;99.90
7658;DHT22;8462;53.156;8.220;2023-11-21T06:30:11;10.10;99.90
7658;DHT22;8462;53.156;8.220;2023-11-21T06:32:39;10.10;99.90
7658;DHT22;8462;53.156;8.220;2023-11-21T06:35:07;10.10;99.90
7658;DHT22;8462;53.156;8.220;2023-11-21T06:37:35;10.10;99.90
7658;DHT22;8462;53.156;8.220;2023-11-21T06:40:04;10.00;99.90
7658;DHT22;8462;53.156;8.220;2023-11-21T06:42:33;10.10;99.90
7658;DHT22;8462;53.156;8.220;2023-11-21T06:45:00;10.10;99.90
7658;DHT22;8462;53.156;8.220;2023-11-21T06:47:29;10.00;99.90
7658;DHT22;8462;53.156;8.220;2023-11-21T06:49:56;10.00;99.90
7658;DHT22;8462;53.156;8.220;2023-11-21T06:52:24;9.90;99.90
7658;DHT22;8462;53.156;8.220;2023-11-21T06:54:51;9.80;99.90
7658;DHT22;8462;53.156;8.220;2023-11-21T06:57:18;9.80;99.90
7658;DHT22;8462;53.156;8.220;2023-11-21T06:59:46;9.80;99.90
7658;DHT22;8462;53.156;8.220;2023-11-21T07:02:14;9.70;99.90
7658;DHT22;8462;53.156;8.220;2023-11-21T07:04:44;9.80;99.90
7658;DHT22;8462;53.156;8.220;2023-11-21T07:07:10;9.70;99.90
7658;DHT22;8462;53.156;8.220;2023-11-21T07:09:37;9.60;99.90
7658;DHT22;8462;53.156;8.220;2023-11-21T07:12:05;9.60;99.90
7658;DHT22;8462;53.156;8.220;2023-11-21T07:14:33;9.60;99.90
7658;DHT22;8462;53.156;8.220;2023-11-21T07:17:01;9.50;99.90
7658;DHT22;8462;53.156;8.220;2023-11-21T07:19:28;9.50;99.90
7658;DHT22;8462;53.156;8.220;2023-11-21T07:21:56;9.50;99.90
7658;DHT22;8462;53.156;8.220;2023-11-21T07:24:23;9.50;99.90
7658;DHT22;8462;53.156;8.220;2023-11-21T07:26:51;9.50;99.90
7658;DHT22;8462;53.156;8.220;2023-11-21T07:29:23;9.50;99.90
7658;DHT22;8462;53.156;8.220;2023-11-21T07:31:51;9.50;99.90
7658;DHT22;8462;53.156;8.220;2023-11-21T07:34:19;9.50;99.90
7658;DHT22;8462;53.156;8.220;2023-11-21T07:36:47;9.50;99.90
7658;DHT22;8462;53.156;8.220;2023-11-21T07:39:14;9.60;99.90
7658;DHT22;8462;53.156;8.220;2023-11-21T07:41:52;9.60;99.90
7658;DHT22;8462;53.156;8.220;2023-11-21T07:44:19;9.50;99.90
7658;DHT22;8462;53.156;8.220;2023-11-21T07:46:47;9.40;99.90
7658;DHT22;8462;53.156;8.220;2023-11-21T07:49:15;9.40;99.90
7658;DHT22;8462;53.156;8.220;2023-11-21T07:51:47;9.40;99.90
7658;DHT22;8462;53.156;8.220;2023-11-21T07:54:14;9.50;99.90
7658;DHT22;8462;53.156;8.220;2023-11-21T07:56:42;9.50;99.90
7658;DHT22;8462;53.156;8.220;2023-11-21T07:59:09;9.50;99.90
7658;DHT22;8462;53.156;8.220;2023-11-21T08:01:37;9.50;99.90
7658;DHT22;8462;53.156;8.220;2023-11-21T08:04:06;9.50;99.90
7658;DHT22;8462;53.156;8.220;2023-11-21T08:06:33;9.50;99.90
7658;DHT22;8462;53.156;8.220;2023-11-21T08:09:02;9.50;99.90
7658;DHT22;8462;53.156;8.220;2023-11-21T08:11:29;9.50;99.90
7658;DHT22;8462;53.156;8.220;2023-11-21T08:13:59;9.50;99.90
7658;DHT22;8462;53.156;8.220;2023-11-21T08:16:28;9.60;99.90
7658;DHT22;8462;53.156;8.220;2023-11-21T08:18:56;9.60;99.90
7658;DHT22;8462;53.156;8.220;2023-11-21T08:21:24;9.60;99.90
7658;DHT22;8462;53.156;8.220;2023-11-21T08:23:54;9.70;99.90
7658;DHT22;8462;53.156;8.220;2023-11-21T08:26:23;9.70;99.90
7658;DHT22;8462;53.156;8.220;2023-11-21T08:28:50;9.70;99.90
7658;DHT22;8462;53.156;8.220;2023-11-21T08:31:25;9.80;99.90
7658;DHT22;8462;53.156;8.220;2023-11-21T08:33:54;9.90;99.90
7658;DHT22;8462;53.156;8.220;2023-11-21T08:36:21;10.00;99.90
7658;DHT22;8462;53.156;8.220;2023-11-21T08:38:50;10.10;99.90
7658;DHT22;8462;53.156;8.220;2023-11-21T08:41:18;10.20;99.90
7658;DHT22;8462;53.156;8.220;2023-11-21T08:43:50;10.20;99.90
7658;DHT22;8462;53.156;8.220;2023-11-21T08:46:18;10.30;99.90
7658;DHT22;8462;53.156;8.220;2023-11-21T08:48:46;10.30;99.90
7658;DHT22;8462;53.156;8.220;2023-11-21T08:51:13;10.20;99.90
7658;DHT22;8462;53.156;8.220;2023-11-21T08:53:41;10.20;99.90
7658;DHT22;8462;53.156;8.220;2023-11-21T08:56:12;10.20;99.90
7658;DHT22;8462;53.156;8.220;2023-11-21T08:58:39;10.20;99.90
7658;DHT22;8462;53.156;8.220;2023-11-21T09:01:09;10.20;99.90
7658;DHT22;8462;53.156;8.220;2023-11-21T09:03:37;10.20;99.90
7658;DHT22;8462;53.156;8.220;2023-11-21T09:06:06;10.10;99.90
7658;DHT22;8462;53.156;8.220;2023-11-21T09:08:35;10.10;99.90
7658;DHT22;8462;53.156;8.220;2023-11-21T09:11:02;10.00;99.90
7658;DHT22;8462;53.156;8.220;2023-11-21T09:13:29;9.90;99.90
7658;DHT22;8462;53.156;8.220;2023-11-21T09:15:57;9.90;99.90
7658;DHT22;8462;53.156;8.220;2023-11-21T09:18:25;9.90;99.90
7658;DHT22;8462;53.156;8.220;2023-11-21T09:20:52;9.90;99.90
7658;DHT22;8462;53.156;8.220;2023-11-21T09:23:19;9.90;99.90
7658;DHT22;8462;53.156;8.220;2023-11-21T09:25:46;9.90;99.90
7658;DHT22;8462;53.156;8.220;2023-11-21T09:28:16;9.90;99.90
7658;DHT22;8462;53.156;8.220;2023-11-21T09:30:43;10.00;99.90
7658;DHT22;8462;53.156;8.220;2023-11-21T09:33:10;10.00;99.90
7658;DHT22;8462;53.156;8.220;2023-11-21T09:35:38;10.10;99.90
7658;DHT22;8462;53.156;8.220;2023-11-21T09:38:05;10.10;99.90
7658;DHT22;8462;53.156;8.220;2023-11-21T09:40:37;10.20;99.90
7658;DHT22;8462;53.156;8.220;2023-11-21T09:43:06;10.20;99.90
7658;DHT22;8462;53.156;8.220;2023-11-21T09:45:35;10.20;99.90
7658;DHT22;8462;53.156;8.220;2023-11-21T09:48:02;10.10;99.90
7658;DHT22;8462;53.156;8.220;2023-11-21T09:50:31;10.10;99.90
7658;DHT22;8462;53.156;8.220;2023-11-21T09:53:09;10.10;99.90
7658;DHT22;8462;53.156;8.220;2023-11-21T09:55:43;10.20;99.90
7658;DHT22;8462;53.156;8.220;2023-11-21T09:58:13;10.20;99.90
7658;DHT22;8462;53.156;8.220;2023-11-21T10:00:46;10.30;99.90
7658;DHT22;8462;53.156;8.220;2023-11-21T10:03:14;10.40;99.90
7658;DHT22;8462;53.156;8.220;2023-11-21T10:05:43;10.40;99.90
7658;DHT22;8462;53.156;8.220;2023-11-21T10:08:13;10.40;99.90
7658;DHT22;8462;53.156;8.220;2023-11-21T10:10:43;10.40;99.90
7658;DHT22;8462;53.156;8.220;2023-11-21T10:13:12;10.50;99.90
7658;DHT22;8462;53.156;8.220;2023-11-21T10:15:43;10.50;99.90
7658;DHT22;8462;53.156;8.220;2023-11-21T10:18:15;10.50;99.90
7658;DHT22;8462;53.156;8.220;2023-11-21T10:20:43;10.60;99.90
7658;DHT22;8462;53.156;8.220;2023-11-21T10:23:13;10.70;99.90
7658;DHT22;8462;53.156;8.220;2023-11-21T10:25:41;10.70;99.90
7658;DHT22;8462;53.156;8.220;2023-11-21T10:28:09;10.70;99.90
7658;DHT22;8462;53.156;8.220;2023-11-21T10:30:38;10.70;99.90
7658;DHT22;8462;53.156;8.220;2023-11-21T10:33:06;10.70;99.90
7658;DHT22;8462;53.156;8.220;2023-11-21T10:35:43;10.60;99.90
7658;DHT22;8462;53.156;8.220;2023-11-21T10:38:15;10.50;99.90
7658;DHT22;8462;53.156;8.220;2023-11-21T10:40:43;10.40;99.90
7658;DHT22;8462;53.156;8.220;2023-11-21T10:43:13;10.40;99.90
7658;DHT22;8462;53.156;8.220;2023-11-21T10:45:42;10.50;99.90
7658;DHT22;8462;53.156;8.220;2023-11-21T10:48:10;10.50;99.90
7658;DHT22;8462;53.156;8.220;2023-11-21T10:50:37;10.60;99.90
7658;DHT22;8462;53.156;8.220;2023-11-21T10:53:05;10.60;99.90
7658;DHT22;8462;53.156;8.220;2023-11-21T10:55:34;10.60;99.90
7658;DHT22;8462;53.156;8.220;2023-11-21T10:58:02;10.60;99.90
7658;DHT22;8462;53.156;8.220;2023-11-21T11:00:31;10.60;99.90
7658;DHT22;8462;53.156;8.220;2023-11-21T11:02:59;10.70;99.90
7658;DHT22;8462;53.156;8.220;2023-11-21T11:05:28;10.80;99.90
7658;DHT22;8462;53.156;8.220;2023-11-21T11:07:59;10.80;99.90
7658;DHT22;8462;53.156;8.220;2023-11-21T11:10:27;10.80;99.90
7658;DHT22;8462;53.156;8.220;2023-11-21T11:12:57;10.70;99.90
7658;DHT22;8462;53.156;8.220;2023-11-21T11:15:25;10.70;99.90
7658;DHT22;8462;53.156;8.220;2023-11-21T11:17:53;10.70;99.90
7658;DHT22;8462;53.156;8.220;2023-11-21T11:20:24;10.60;99.90
7658;DHT22;8462;53.156;8.220;2023-11-21T11:23:04;10.60;99.90
7658;DHT22;8462;53.156;8.220;2023-11-21T11:25:47;10.60;99.90
7658;DHT22;8462;53.156;8.220;2023-11-21T11:28:21;10.60;99.90
7658;DHT22;8462;53.156;8.220;2023-11-21T11:31:00;10.70;99.90
7658;DHT22;8462;53.156;8.220;2023-11-21T11:33:36;10.70;99.90
7658;DHT22;8462;53.156;8.220;2023-11-21T11:36:08;10.70;99.90
7658;DHT22;8462;53.156;8.220;2023-11-21T11:38:37;10.60;99.90
7658;DHT22;8462;53.156;8.220;2023-11-21T11:41:06;10.50;99.90
7658;DHT22;8462;53.156;8.220;2023-11-21T11:43:36;10.50;99.90
7658;DHT22;8462;53.156;8.220;2023-11-21T11:46:10;10.50;99.90
7658;DHT22;8462;53.156;8.220;2023-11-21T11:48:39;10.40;99.90
7658;DHT22;8462;53.156;8.220;2023-11-21T11:51:10;10.30;99.90
7658;DHT22;8462;53.156;8.220;2023-11-21T11:53:41;10.30;99.90
7658;DHT22;8462;53.156;8.220;2023-11-21T11:56:25;10.30;99.90
7658;DHT22;8462;53.156;8.220;2023-11-21T11:58:59;10.30;99.90
7658;DHT22;8462;53.156;8.220;2023-11-21T12:01:32;10.30;99.90
7658;DHT22;8462;53.156;8.220;2023-11-21T12:04:24;10.30;99.90
7658;DHT22;8462;53.156;8.220;2023-11-21T12:07:01;10.30;99.90
7658;DHT22;8462;53.156;8.220;2023-11-21T12:09:32;10.30;99.90
7658;DHT22;8462;53.156;8.220;2023-11-21T12:11:59;10.40;99.90
7658;DHT22;8462;53.156;8.220;2023-11-21T12:14:28;10.40;99.90
7658;DHT22;8462;53.156;8.220;2023-11-21T12:16:55;10.50;99.90
7658;DHT22;8462;53.156;8.220;2023-11-21T12:19:22;10.60;99.90
7658;DHT22;8462;53.156;8.220;2023-11-21T12:21:49;10.60;99.90
7658;DHT22;8462;53.156;8.220;2023-11-21T12:24:18;10.60;99.90
7658;DHT22;8462;53.156;8.220;2023-11-21T12:26:45;10.60;99.90
7658;DHT22;8462;53.156;8.220;2023-11-21T12:29:12;10.50;99.90
7658;DHT22;8462;53.156;8.220;2023-11-21T12:31:40;10.50;99.90
7658;DHT22;8462;53.156;8.220;2023-11-21T12:34:07;10.50;99.90
7658;DHT22;8462;53.156;8.220;2023-11-21T12:36:38;10.70;99.90
7658;DHT22;8462;53.156;8.220;2023-11-21T12:39:05;10.70;99.90
7658;DHT22;8462;53.156;8.220;2023-11-21T12:41:35;10.80;99.90
7658;DHT22;8462;53.156;8.220;2023-11-21T12:44:02;10.70;99.90
7658;DHT22;8462;53.156;8.220;2023-11-21T12:46:29;10.70;99.90
7658;DHT22;8462;53.156;8.220;2023-11-21T12:49:00;10.70;99.90
7658;DHT22;8462;53.156;8.220;2023-11-21T12:51:27;10.70;99.90
7658;DHT22;8462;53.156;8.220;2023-11-21T12:53:56;10.70;99.90
7658;DHT22;8462;53.156;8.220;2023-11-21T12:56:24;10.80;99.90
7658;DHT22;8462;53.156;8.220;2023-11-21T12:58:54;10.80;99.90
7658;DHT22;8462;53.156;8.220;2023-11-21T13:01:25;10.90;99.90
7658;DHT22;8462;53.156;8.220;2023-11-21T13:03:54;10.80;99.90
7658;DHT22;8462;53.156;8.220;2023-11-21T13:06:24;10.80;99.90
7658;DHT22;8462;53.156;8.220;2023-11-21T13:08:51;10.80;99.90
7658;DHT22;8462;53.156;8.220;2023-11-21T13:11:19;10.80;99.90
7658;DHT22;8462;53.156;8.220;2023-11-21T13:13:52;10.80;99.90
7658;DHT22;8462;53.156;8.220;2023-11-21T13:16:20;10.70;99.90
7658;DHT22;8462;53.156;8.220;2023-11-21T13:18:47;10.80;99.90
7658;DHT22;8462;53.156;8.220;2023-11-21T13:21:14;10.80;99.90
7658;DHT22;8462;53.156;8.220;2023-11-21T13:23:44;10.80;99.90
7658;DHT22;8462;53.156;8.220;2023-11-21T13:26:14;10.70;99.90
7658;DHT22;8462;53.156;8.220;2023-11-21T13:28:41;10.70;99.90
7658;DHT22;8462;53.156;8.220;2023-11-21T13:31:11;10.80;99.90
7658;DHT22;8462;53.156;8.220;2023-11-21T13:33:52;10.80;99.90
7658;DHT22;8462;53.156;8.220;2023-11-21T13:36:22;10.80;99.90
7658;DHT22;8462;53.156;8.220;2023-11-21T13:38:51;10.90;99.90
7658;DHT22;8462;53.156;8.220;2023-11-21T13:41:19;10.90;99.90
7658;DHT22;8462;53.156;8.220;2023-11-21T13:43:48;10.90;99.90
7658;DHT22;8462;53.156;8.220;2023-11-21T13:46:22;10.90;99.90
7658;DHT22;8462;53.156;8.220;2023-11-21T13:48:49;10.90;99.90
7658;DHT22;8462;53.156;8.220;2023-11-21T13:51:21;10.90;99.90
7658;DHT22;8462;53.156;8.220;2023-11-21T13:53:58;10.90;99.90
7658;DHT22;8462;53.156;8.220;2023-11-21T13:56:26;10.90;99.90
7658;DHT22;8462;53.156;8.220;2023-11-21T13:58:55;10.90;99.90
7658;DHT22;8462;53.156;8.220;2023-11-21T14:01:26;10.90;99.90
7658;DHT22;8462;53.156;8.220;2023-11-21T14:04:13;10.90;99.90
7658;DHT22;8462;53.156;8.220;2023-11-21T14:06:46;10.90;99.90
7658;DHT22;8462;53.156;8.220;2023-11-21T14:09:16;10.80;99.90
7658;DHT22;8462;53.156;8.220;2023-11-21T14:11:49;10.80;99.90
7658;DHT22;8462;53.156;8.220;2023-11-21T14:14:18;10.80;99.90
7658;DHT22;8462;53.156;8.220;2023-11-21T14:16:45;10.80;99.90
7658;DHT22;8462;53.156;8.220;2023-11-21T14:19:12;10.80;99.90
7658;DHT22;8462;53.156;8.220;2023-11-21T14:21:42;10.70;99.90
7658;DHT22;8462;53.156;8.220;2023-11-21T14:24:10;10.70;99.90
7658;DHT22;8462;53.156;8.220;2023-11-21T14:26:40;10.60;99.90
7658;DHT22;8462;53.156;8.220;2023-11-21T14:29:08;10.60;99.90
7658;DHT22;8462;53.156;8.220;2023-11-21T14:31:38;10.70;99.90
7658;DHT22;8462;53.156;8.220;2023-11-21T14:34:05;10.70;99.90
7658;DHT22;8462;53.156;8.220;2023-11-21T14:36:32;10.70;99.90
7658;DHT22;8462;53.156;8.220;2023-11-21T14:38:59;10.60;99.90
7658;DHT22;8462;53.156;8.220;2023-11-21T14:41:26;10.60;99.90
7658;DHT22;8462;53.156;8.220;2023-11-21T14:43:56;10.60;99.90
7658;DHT22;8462;53.156;8.220;2023-11-21T14:46:25;10.60;99.90
7658;DHT22;8462;53.156;8.220;2023-11-21T14:48:52;10.60;99.90
7658;DHT22;8462;53.156;8.220;2023-11-21T14:51:33;10.50;99.90
7658;DHT22;8462;53.156;8.220;2023-11-21T14:54:19;10.40;99.90
7658;DHT22;8462;53.156;8.220;2023-11-21T14:57:00;10.30;99.90
7658;DHT22;8462;53.156;8.220;2023-11-21T14:59:29;10.20;99.90
7658;DHT22;8462;53.156;8.220;2023-11-21T15:01:59;10.20;99.90
7658;DHT22;8462;53.156;8.220;2023-11-21T15:04:40;10.20;99.90
7658;DHT22;8462;53.156;8.220;2023-11-21T15:07:08;10.20;99.90
7658;DHT22;8462;53.156;8.220;2023-11-21T15:09:38;10.10;99.90
7658;DHT22;8462;53.156;8.220;2023-11-21T15:12:07;10.10;99.90
7658;DHT22;8462;53.156;8.220;2023-11-21T15:14:43;10.00;99.90
7658;DHT22;8462;53.156;8.220;2023-11-21T15:17:13;10.00;99.90
7658;DHT22;8462;53.156;8.220;2023-11-21T15:19:48;9.90;99.90
7658;DHT22;8462;53.156;8.220;2023-11-21T15:22:16;9.90;99.90
7658;DHT22;8462;53.156;8.220;2023-11-21T15:24:43;10.00;99.90
7658;DHT22;8462;53.156;8.220;2023-11-21T15:27:12;9.90;99.90
7658;DHT22;8462;53.156;8.220;2023-11-21T15:29:39;9.90;99.90
7658;DHT22;8462;53.156;8.220;2023-11-21T15:32:08;9.90;99.90
7658;DHT22;8462;53.156;8.220;2023-11-21T15:34:36;9.90;99.90
7658;DHT22;8462;53.156;8.220;2023-11-21T15:37:05;9.90;99.90
7658;DHT22;8462;53.156;8.220;2023-11-21T15:39:35;9.90;99.90
7658;DHT22;8462;53.156;8.220;2023-11-21T15:42:01;9.90;99.90
7658;DHT22;8462;53.156;8.220;2023-11-21T15:44:29;9.90;99.90
7658;DHT22;8462;53.156;8.220;2023-11-21T15:46:58;9.90;99.90
7658;DHT22;8462;53.156;8.220;2023-11-21T15:49:27;9.90;99.90
7658;DHT22;8462;53.156;8.220;2023-11-21T15:51:55;10.00;99.90
7658;DHT22;8462;53.156;8.220;2023-11-21T15:54:25;9.90;99.90
7658;DHT22;8462;53.156;8.220;2023-11-21T15:56:58;9.90;99.90
7658;DHT22;8462;53.156;8.220;2023-11-21T15:59:26;9.90;99.90
7658;DHT22;8462;53.156;8.220;2023-11-21T16:01:56;9.90;99.90
7658;DHT22;8462;53.156;8.220;2023-11-21T16:04:23;9.70;99.90
7658;DHT22;8462;53.156;8.220;2023-11-21T16:06:54;9.70;99.90
7658;DHT22;8462;53.156;8.220;2023-11-21T16:09:21;9.60;99.90
7658;DHT22;8462;53.156;8.220;2023-11-21T16:11:50;9.60;99.90
7658;DHT22;8462;53.156;8.220;2023-11-21T16:14:21;9.50;99.90
7658;DHT22;8462;53.156;8.220;2023-11-21T16:16:51;9.60;99.90